Time;durP1;ratioP1;P1;durP2;ratioP2;P2;SDS_P1;SDS_P2;PMS_P1;PMS_P2;Temp;Humidity;BMP_temperature;BMP_pressure;BME280_temperature;BME280_humidity;BME280_pressure;Samples;Min_cycle;Max_cycle;Signal;HPM_P1;HPM_P2
2022/02/12 00:02:06;;;;;;;;;;;;;;;7.81;51.78;103411.28;5001532;28;19925;-86
2022/02/12 00:04:31;;;;;;;;;;;;;;;7.83;51.95;103414.00;5001332;28;19917;-86
2022/02/12 00:06:56;;;;;;;;;;;;;;;7.59;52.61;103406.66;5001682;28;19947;-85
2022/02/12 00:09:21;;;;;;;;;;;;;;;7.41;52.70;103411.06;5001486;28;20000;-86
2022/02/12 00:11:47;;;;;;;;;;;;;;;7.25;53.21;103411.84;5001310;28;19917;-86
2022/02/12 00:14:12;;;;;;;;;;;;;;;7.31;53.46;103414.56;5001463;28;19961;-86
2022/02/12 00:16:37;;;;;;;;;;;;;;;7.04;54.30;103412.56;5002396;28;19967;-85
2022/02/12 00:19:02;;;;;;;;;;;;;;;7.28;53.89;103406.47;5019551;28;19918;-84
2022/02/12 00:21:28;;;;;;;;;;;;;;;7.67;53.23;103395.94;5000566;28;20567;-85
2022/02/12 00:23:53;;;;;;;;;;;;;;;6.87;55.95;103402.56;4999037;28;19917;-86
2022/02/12 00:26:20;;;;;;;;;;;;;;;6.46;57.67;103399.44;4998535;28;20256;-85
2022/02/12 00:28:45;;;;;;;;;;;;;;;6.49;57.71;103403.09;5016099;28;19921;-85
2022/02/12 00:31:10;;;;;;;;;;;;;;;6.24;59.49;103404.59;5001996;28;20363;-85
2022/02/12 00:33:36;;;;;;;;;;;;;;;6.06;60.58;103388.25;5001842;28;19922;-83
2022/02/12 00:36:01;;;;;;;;;;;;;;;6.46;59.65;103388.69;5004531;28;19917;-84
2022/02/12 00:38:29;;;;;;;;;;;;;;;6.66;59.10;103381.72;5001082;28;19959;-85
2022/02/12 00:40:54;;;;;;;;;;;;;;;6.84;58.84;103374.69;5002156;28;19929;-84
2022/02/12 00:43:19;;;;;;;;;;;;;;;6.39;59.96;103372.50;4999173;28;19918;-84
2022/02/12 00:45:46;;;;;;;;;;;;;;;6.66;59.77;103365.59;5018329;28;19918;-83
2022/02/12 00:48:12;;;;;;;;;;;;;;;7.41;56.98;103354.50;5017108;28;20363;-85
2022/02/12 00:50:38;;;;;;;;;;;;;;;7.90;55.12;103355.66;5001037;28;20012;-85
2022/02/12 00:53:03;;;;;;;;;;;;;;;7.57;55.71;103360.88;5001071;28;19917;-84
2022/02/12 00:55:28;;;;;;;;;;;;;;;7.14;57.34;103357.00;5000295;28;20123;-83
2022/02/12 00:57:54;;;;;;;;;;;;;;;7.14;57.98;103357.00;4999925;28;19925;-84
2022/02/12 01:00:19;;;;;;;;;;;;;;;7.03;57.73;103356.94;5000885;28;19917;-83
2022/02/12 01:02:45;;;;;;;;;;;;;;;7.07;58.21;103356.97;5017680;28;19932;-85
2022/02/12 01:05:11;;;;;;;;;;;;;;;7.06;57.96;103347.06;5018243;28;20349;-84
2022/02/12 01:07:36;;;;;;;;;;;;;;;7.41;57.08;103350.88;5000055;28;19918;-82
2022/02/12 01:10:01;;;;;;;;;;;;;;;7.26;57.00;103339.16;4999384;28;19925;-83
2022/02/12 01:12:26;;;;;;;;;;;;;;;7.03;58.14;103336.28;5016598;28;19971;-83
2022/02/12 01:14:52;;;;;;;;;;;;;;;7.03;57.66;103336.28;5000581;28;19979;-82
2022/02/12 01:17:17;;;;;;;;;;;;;;;7.25;56.26;103333.75;5000599;28;19918;-82
2022/02/12 01:19:42;;;;;;;;;;;;;;;6.77;58.43;103343.28;5017842;28;20014;-82
2022/02/12 01:22:09;;;;;;;;;;;;;;;6.61;59.07;103334.16;5021145;28;20024;-82
2022/02/12 01:24:34;;;;;;;;;;;;;;;6.96;58.04;103331.78;5006754;28;19918;-82
2022/02/12 01:27:01;;;;;;;;;;;;;;;7.08;58.18;103330.94;5006982;28;20004;-82
2022/02/12 01:29:26;;;;;;;;;;;;;;;6.90;58.03;103334.41;5024497;28;19925;-82
2022/02/12 01:31:51;;;;;;;;;;;;;;;6.81;59.18;103331.63;5006353;28;19925;-82
2022/02/12 01:34:17;;;;;;;;;;;;;;;6.44;59.36;103325.94;5024647;28;20016;-82
2022/02/12 01:36:42;;;;;;;;;;;;;;;6.66;58.85;103332.41;5006944;28;19928;-82
2022/02/12 01:39:07;;;;;;;;;;;;;;;6.90;58.47;103335.31;5006625;28;20404;-81
2022/02/12 01:41:32;;;;;;;;;;;;;;;7.05;57.48;103331.84;5006652;28;19925;-82
2022/02/12 01:44:05;;;;;;;;;;;;;;;6.86;58.42;103327.19;5006462;28;20099;-82
2022/02/12 01:46:30;;;;;;;;;;;;;;;6.70;58.54;103328.84;5006614;28;19917;-83
2022/02/12 01:48:55;;;;;;;;;;;;;;;6.71;58.73;103328.84;5006157;28;19917;-83
2022/02/12 01:51:22;;;;;;;;;;;;;;;6.77;58.46;103325.31;5023688;28;19918;-83
2022/02/12 01:53:47;;;;;;;;;;;;;;;6.34;60.32;103325.84;5006187;28;19917;-83
2022/02/12 01:56:13;;;;;;;;;;;;;;;6.27;60.84;103332.03;5006392;28;20291;-82
2022/02/12 01:58:38;;;;;;;;;;;;;;;6.02;62.57;103333.53;5023934;28;19917;-82
2022/02/12 02:01:03;;;;;;;;;;;;;;;6.42;60.10;103322.34;5006406;28;19922;-83
2022/02/12 02:03:28;;;;;;;;;;;;;;;6.26;60.68;103319.47;5006379;28;19929;-82
2022/02/12 02:05:55;;;;;;;;;;;;;;;6.35;59.94;103314.19;5023540;28;19928;-82
2022/02/12 02:08:20;;;;;;;;;;;;;;;6.67;59.82;103313.59;5001829;28;19917;-82
2022/02/12 02:10:46;;;;;;;;;;;;;;;6.38;59.90;103313.31;5001757;28;19913;-83
2022/02/12 02:13:27;;;;;;;;;;;;;;;6.19;61.08;103310.47;5019312;28;19917;-82
2022/02/12 02:15:53;;;;;;;;;;;;;;;6.32;61.21;103300.72;5019219;28;19919;-82
2022/02/12 02:18:18;;;;;;;;;;;;;;;6.65;59.19;103304.59;5019208;28;19918;-82
2022/02/12 02:20:43;;;;;;;;;;;;;;;6.32;60.32;103298.03;5001529;28;19917;-83
2022/02/12 02:23:09;;;;;;;;;;;;;;;6.48;59.62;103293.69;5001810;28;19918;-83
2022/02/12 02:25:34;;;;;;;;;;;;;;;6.73;58.54;103286.75;5019898;28;19927;-83
2022/02/12 02:27:59;;;;;;;;;;;;;;;6.46;59.49;103278.44;5020203;28;19960;-83
2022/02/12 02:30:27;;;;;;;;;;;;;;;6.20;59.79;103277.31;5015205;28;19960;-82
2022/02/12 02:32:52;;;;;;;;;;;;;;;6.23;59.25;103273.75;4992935;28;19928;-83
2022/02/12 02:35:19;;;;;;;;;;;;;;;6.90;57.58;103261.75;4982689;28;19971;-83
2022/02/12 02:37:44;;;;;;;;;;;;;;;7.11;56.41;103266.38;4979605;28;20032;-83
2022/02/12 02:40:19;;;;;;;;;;;;;;;6.39;58.08;103264.06;4995467;28;20392;-83
2022/02/12 02:42:45;;;;;;;;;;;;;;;6.39;58.54;103258.69;4996423;28;20008;-83
2022/02/12 02:45:11;;;;;;;;;;;;;;;6.58;57.41;103254.31;4978743;28;19973;-82
2022/02/12 02:47:40;;;;;;;;;;;;;;;6.50;57.65;103248.00;4996193;28;19925;-82
2022/02/12 02:55:59;;;;;;;;;;;;;;;6.17;58.47;103253.06;4996160;28;19965;-82
2022/02/12 02:58:19;;;;;;;;;;;;;;;6.35;57.31;103249.66;4996420;28;19971;-83
2022/02/12 03:00:45;;;;;;;;;;;;;;;6.41;57.06;103251.50;4978472;28;19918;-83
2022/02/12 03:03:10;;;;;;;;;;;;;;;6.72;57.04;103249.97;4994871;28;19980;-82
2022/02/12 03:05:36;;;;;;;;;;;;;;;6.45;55.97;103250.66;4994435;28;20368;-82
2022/02/12 03:08:01;;;;;;;;;;;;;;;6.91;56.20;103247.41;4978092;28;19924;-82
2022/02/12 03:10:26;;;;;;;;;;;;;;;6.83;56.05;103243.75;4994324;28;19918;-82
2022/02/12 03:12:51;;;;;;;;;;;;;;;6.59;56.12;103231.03;4995507;28;19917;-82
2022/02/12 03:15:16;;;;;;;;;;;;;;;6.65;55.89;103233.78;4977925;28;20402;-83
2022/02/12 03:17:42;;;;;;;;;;;;;;;6.75;55.21;103230.28;4995380;28;19918;-82
2022/02/12 03:20:07;;;;;;;;;;;;;;;6.73;55.60;103229.34;4977888;28;19925;-83
2022/02/12 03:22:33;;;;;;;;;;;;;;;6.87;54.94;103219.56;4994065;28;20331;-83
2022/02/12 03:24:58;;;;;;;;;;;;;;;7.18;53.59;103208.97;4977502;28;19957;-83
2022/02/12 03:27:23;;;;;;;;;;;;;;;6.65;55.20;103198.81;4977531;28;19997;-83
2022/02/12 03:29:48;;;;;;;;;;;;;;;6.22;56.43;103199.41;4995286;28;19917;-82
2022/02/12 03:32:13;;;;;;;;;;;;;;;6.43;55.41;103201.34;4992063;28;20434;-81
2022/02/12 03:34:39;;;;;;;;;;;;;;;6.59;54.76;103199.66;5014998;28;19917;-82
2022/02/12 03:37:04;;;;;;;;;;;;;;;6.28;55.45;103202.13;4997258;28;19923;-82
2022/02/12 03:39:29;;;;;;;;;;;;;;;6.44;55.10;103197.75;5014819;28;19925;-82
2022/02/12 03:41:54;;;;;;;;;;;;;;;7.03;54.46;103181.97;4997242;28;20489;-82
2022/02/12 03:44:19;;;;;;;;;;;;;;;6.45;55.56;103190.59;4996790;28;19924;-83
2022/02/12 03:46:44;;;;;;;;;;;;;;;6.76;54.94;103191.69;4997307;28;19918;-82
2022/02/12 03:49:10;;;;;;;;;;;;;;;6.89;54.20;103192.69;4997217;28;19918;-82
2022/02/12 03:51:35;;;;;;;;;;;;;;;6.91;53.89;103185.50;5014661;28;19917;-82
2022/02/12 03:54:00;;;;;;;;;;;;;;;7.09;52.94;103182.00;4997223;28;19940;-82
2022/02/12 03:56:25;;;;;;;;;;;;;;;6.68;54.43;103185.38;5014620;28;19956;-82
2022/02/12 03:58:50;;;;;;;;;;;;;;;6.76;53.71;103175.56;5014716;28;20025;-82
2022/02/12 04:01:16;;;;;;;;;;;;;;;6.87;54.04;103171.16;4997333;28;19953;-83
2022/02/12 04:03:42;;;;;;;;;;;;;;;6.53;54.75;103180.78;4996715;28;20023;-82
2022/02/12 04:06:07;;;;;;;;;;;;;;;6.98;53.44;103164.91;5014721;28;19968;-83
2022/02/12 04:08:32;;;;;;;;;;;;;;;6.73;53.42;103157.63;4996933;28;20339;-82
2022/02/12 04:10:57;;;;;;;;;;;;;;;6.89;53.43;103165.78;5014389;28;19921;-82
2022/02/12 04:13:23;;;;;;;;;;;;;;;6.74;53.39;103159.41;5014186;28;20291;-81
2022/02/12 04:15:48;;;;;;;;;;;;;;;6.36;54.47;103168.13;4996531;28;19913;-83
2022/02/12 04:18:15;;;;;;;;;;;;;;;6.62;54.45;103164.72;4996503;28;20016;-82
2022/02/12 04:20:40;;;;;;;;;;;;;;;6.31;55.10;103160.91;5014200;28;19914;-81
2022/02/12 04:23:06;;;;;;;;;;;;;;;6.49;54.74;103160.13;5014759;28;19918;-83
2022/02/12 04:25:31;;;;;;;;;;;;;;;6.69;54.24;103150.41;4997122;28;19917;-82
2022/02/12 04:27:56;;;;;;;;;;;;;;;7.13;53.48;103143.44;4999161;28;19917;-81
2022/02/12 04:30:22;;;;;;;;;;;;;;;6.55;53.91;103142.28;4997182;28;19922;-81
2022/02/12 04:32:47;;;;;;;;;;;;;;;6.59;54.10;103144.97;5013805;28;20016;-82
2022/02/12 04:35:16;;;;;;;;;;;;;;;6.57;54.86;103140.47;5013552;28;20372;-81
2022/02/12 04:37:41;;;;;;;;;;;;;;;6.62;54.34;103137.81;4995972;28;19924;-82
2022/02/12 04:40:07;;;;;;;;;;;;;;;6.76;53.43;103131.63;5013516;28;19918;-82
2022/02/12 04:42:32;;;;;;;;;;;;;;;6.81;53.91;103132.53;4996020;28;20356;-82
2022/02/12 04:44:57;;;;;;;;;;;;;;;6.18;55.28;103131.25;4995900;28;20308;-82
2022/02/12 04:47:23;;;;;;;;;;;;;;;6.46;54.94;103115.34;4995935;28;19924;-82
2022/02/12 04:49:49;;;;;;;;;;;;;;;6.63;54.97;103110.03;4996205;28;19975;-82
2022/02/12 04:52:15;;;;;;;;;;;;;;;6.30;54.97;103108.06;4995943;28;20395;-82
2022/02/12 04:54:41;;;;;;;;;;;;;;;6.63;54.33;103099.28;4995838;28;19924;-81
2022/02/12 04:57:06;;;;;;;;;;;;;;;6.63;54.79;103098.34;4995188;28;19917;-82
2022/02/12 04:59:32;;;;;;;;;;;;;;;6.37;55.78;103091.03;4995793;28;19917;-82
2022/02/12 05:01:57;;;;;;;;;;;;;;;6.63;54.79;103090.28;5013413;28;19945;-81
2022/02/12 05:04:25;;;;;;;;;;;;;;;6.33;54.83;103092.84;5013428;28;20296;-83
2022/02/12 05:06:51;;;;;;;;;;;;;;;5.98;56.18;103092.59;4996006;28;19925;-82
2022/02/12 05:09:16;;;;;;;;;;;;;;;6.64;54.92;103086.72;4995866;28;19918;-81
2022/02/12 05:11:43;;;;;;;;;;;;;;;6.80;54.01;103088.59;4995509;28;19913;-81
2022/02/12 05:14:09;;;;;;;;;;;;;;;6.57;54.90;103085.81;5013012;28;20007;-82
2022/02/12 05:16:35;;;;;;;;;;;;;;;6.34;54.92;103093.72;4995677;28;19920;-81
2022/02/12 05:19:00;;;;;;;;;;;;;;;6.68;53.24;103097.50;4995529;28;19921;-81
2022/02/12 05:21:26;;;;;;;;;;;;;;;7.49;51.90;103087.91;5013389;28;19917;-82
2022/02/12 05:23:51;;;;;;;;;;;;;;;7.13;51.87;103081.53;4997994;28;19918;-83
2022/02/12 05:26:16;;;;;;;;;;;;;;;6.57;54.09;103083.13;5015909;28;19917;-82
2022/02/12 05:28:42;;;;;;;;;;;;;;;6.53;55.07;103084.88;5014540;28;19913;-82
2022/02/12 05:31:07;;;;;;;;;;;;;;;6.43;54.99;103092.88;4998377;28;19928;-82
2022/02/12 05:33:37;;;;;;;;;;;;;;;6.64;53.98;103087.59;4997839;28;19928;-82
2022/02/12 05:36:07;;;;;;;;;;;;;;;6.31;55.02;103078.50;4996426;28;19917;-83
2022/02/12 05:38:32;;;;;;;;;;;;;;;6.38;55.03;103074.94;4995610;28;19965;-81
2022/02/12 05:40:58;;;;;;;;;;;;;;;6.25;55.19;103086.53;4995676;28;19918;-83
2022/02/12 05:43:23;;;;;;;;;;;;;;;6.05;55.79;103085.47;4996054;28;19918;-82
2022/02/12 05:45:48;;;;;;;;;;;;;;;6.15;55.41;103071.22;4996429;28;19918;-82
2022/02/12 05:48:13;;;;;;;;;;;;;;;6.30;55.05;103079.38;5013238;28;19914;-83
2022/02/12 05:50:39;;;;;;;;;;;;;;;6.68;53.91;103067.91;4995814;28;19917;-83
2022/02/12 05:53:04;;;;;;;;;;;;;;;6.43;54.59;103063.31;4996097;28;19971;-83
2022/02/12 05:55:29;;;;;;;;;;;;;;;5.97;55.28;103061.25;5013724;28;19968;-82
2022/02/12 05:57:58;;;;;;;;;;;;;;;6.29;55.14;103061.44;4996002;28;19918;-83
2022/02/12 06:00:25;;;;;;;;;;;;;;;6.46;54.97;103056.19;5013570;28;19925;-83
2022/02/12 06:02:50;;;;;;;;;;;;;;;6.61;55.10;103049.94;4995399;28;19921;-80
2022/02/12 06:05:16;;;;;;;;;;;;;;;5.97;55.92;103043.31;5013002;28;20009;-82
2022/02/12 06:07:41;;;;;;;;;;;;;;;5.95;55.86;103047.75;4995580;28;19976;-82
2022/02/12 06:10:06;;;;;;;;;;;;;;;6.32;55.25;103041.75;5016750;28;19918;-84
2022/02/12 06:12:31;;;;;;;;;;;;;;;6.20;55.17;103042.56;4999369;28;19918;-86
2022/02/12 06:14:57;;;;;;;;;;;;;;;6.01;55.99;103037.09;5017888;28;19917;-84
2022/02/12 06:17:22;;;;;;;;;;;;;;;5.75;56.91;103028.81;5022665;28;19918;-81
2022/02/12 06:19:47;;;;;;;;;;;;;;;5.71;57.87;103026.97;5006217;28;19918;-83
2022/02/12 06:22:13;;;;;;;;;;;;;;;5.93;56.11;103016.38;5006572;28;20015;-84
2022/02/12 06:24:38;;;;;;;;;;;;;;;6.03;56.65;103018.28;5017641;28;19971;-83
2022/02/12 06:27:06;;;;;;;;;;;;;;;5.89;56.49;103010.09;5017657;28;19971;-83
2022/02/12 06:29:31;;;;;;;;;;;;;;;5.66;57.38;103013.53;4999773;28;19918;-83
2022/02/12 06:31:56;;;;;;;;;;;;;;;5.61;56.63;103019.75;4999651;28;19925;-83
2022/02/12 06:34:22;;;;;;;;;;;;;;;5.94;56.47;103010.13;4999813;28;19924;-83
2022/02/12 06:36:47;;;;;;;;;;;;;;;6.13;56.28;103003.09;4999025;28;20272;-81
2022/02/12 06:39:12;;;;;;;;;;;;;;;6.37;54.70;103000.56;4998806;28;20394;-83
2022/02/12 06:41:38;;;;;;;;;;;;;;;6.25;55.42;102997.81;5016542;28;19933;-83
2022/02/12 06:44:03;;;;;;;;;;;;;;;6.25;55.24;102996.91;5017123;28;20016;-82
2022/02/12 06:46:28;;;;;;;;;;;;;;;6.25;55.29;102997.81;4999278;28;19961;-82
2022/02/12 06:48:53;;;;;;;;;;;;;;;6.30;55.28;103006.78;5000541;28;19917;-83
2022/02/12 06:51:19;;;;;;;;;;;;;;;5.67;56.21;103001.88;5000202;28;19972;-83
2022/02/12 06:53:44;;;;;;;;;;;;;;;5.85;56.89;103002.91;5000447;28;19929;-82
2022/02/12 06:56:09;;;;;;;;;;;;;;;5.99;56.01;102998.56;5000835;28;19920;-84
2022/02/12 06:58:35;;;;;;;;;;;;;;;6.07;56.08;103001.31;5000744;28;20363;-81
2022/02/12 07:01:00;;;;;;;;;;;;;;;6.10;55.62;102995.03;5001144;28;20399;-83
2022/02/12 07:03:26;;;;;;;;;;;;;;;5.88;56.88;102997.56;4999127;28;19933;-83
2022/02/12 07:05:51;;;;;;;;;;;;;;;5.85;55.91;102992.16;4998852;28;19917;-83
2022/02/12 07:08:16;;;;;;;;;;;;;;;6.30;55.15;103001.41;4998632;28;19913;-83
2022/02/12 07:10:41;;;;;;;;;;;;;;;5.80;56.32;102993.94;4998571;28;20004;-84
2022/02/12 07:13:06;;;;;;;;;;;;;;;5.79;57.34;102987.63;5016054;28;19967;-83
2022/02/12 07:15:32;;;;;;;;;;;;;;;6.07;57.01;102986.94;5016574;28;19937;-86
2022/02/12 07:17:57;;;;;;;;;;;;;;;5.98;56.77;102988.69;4998952;28;19917;-85
2022/02/12 07:20:22;;;;;;;;;;;;;;;5.92;56.47;102994.00;4997668;28;19925;-82
2022/02/12 07:22:48;;;;;;;;;;;;;;;6.16;55.62;102993.28;4998420;28;20447;-85
2022/02/12 07:25:14;;;;;;;;;;;;;;;6.07;56.75;102992.31;4999608;28;19917;-82
2022/02/12 07:27:39;;;;;;;;;;;;;;;5.57;57.28;102996.44;5003523;28;19913;-84
2022/02/12 07:30:09;;;;;;;;;;;;;;;5.64;57.17;102988.44;5018202;28;19929;-86
2022/02/12 07:32:35;;;;;;;;;;;;;;;5.38;58.36;102990.03;5016658;28;20371;-86
2022/02/12 07:35:01;;;;;;;;;;;;;;;6.36;55.28;102984.44;5015020;28;20479;-85
2022/02/12 07:37:26;;;;;;;;;;;;;;;6.39;55.21;102982.63;5015066;28;20004;-88
2022/02/12 07:39:51;;;;;;;;;;;;;;;6.55;54.45;102980.00;4995640;28;19918;-85
2022/02/12 07:42:17;;;;;;;;;;;;;;;6.06;56.10;102975.31;4995705;28;19940;-85
2022/02/12 07:44:42;;;;;;;;;;;;;;;6.02;56.54;102978.84;4995494;28;19921;-85
2022/02/12 07:47:07;;;;;;;;;;;;;;;5.95;55.95;102976.97;5014594;28;19939;-84
2022/02/12 07:49:32;;;;;;;;;;;;;;;6.07;55.62;102976.19;4997007;28;19922;-85
2022/02/12 07:51:57;;;;;;;;;;;;;;;6.45;55.41;102972.81;4996841;28;19940;-85
2022/02/12 07:54:23;;;;;;;;;;;;;;;6.15;54.86;102975.34;4997141;28;20310;-83
2022/02/12 07:56:53;;;;;;;;;;;;;;;6.39;55.43;102982.63;5014407;28;19917;-83
2022/02/12 07:59:19;;;;;;;;;;;;;;;6.26;54.96;102986.16;5014291;28;19918;-83
2022/02/12 08:01:44;;;;;;;;;;;;;;;6.32;55.03;102982.59;4996986;28;19925;-85
2022/02/12 08:04:10;;;;;;;;;;;;;;;7.07;53.54;102974.75;5014549;28;19921;-83
2022/02/12 08:09:22;;;;;;;;;;;;;;;6.76;54.69;102975.59;5017133;28;20390;-84
2022/02/12 08:11:53;;;;;;;;;;;;;;;6.46;55.26;102975.50;5016456;28;19953;-84
2022/02/12 08:14:18;;;;;;;;;;;;;;;6.53;54.61;102966.53;4999526;28;19917;-83
2022/02/12 08:16:43;;;;;;;;;;;;;;;6.32;55.25;102959.28;5015448;28;20064;-84
2022/02/12 08:19:08;;;;;;;;;;;;;;;6.50;54.88;102965.66;5013942;28;19930;-84
2022/02/12 08:21:34;;;;;;;;;;;;;;;6.51;54.64;102949.53;5014686;28;19920;-83
2022/02/12 08:23:59;;;;;;;;;;;;;;;6.95;53.44;102960.41;5003045;28;19917;-82
2022/02/12 08:26:24;;;;;;;;;;;;;;;7.15;53.19;102955.03;5017106;28;19922;-83
2022/02/12 08:28:49;;;;;;;;;;;;;;;6.95;53.33;102955.91;5000073;28;20291;-83
2022/02/12 08:31:15;;;;;;;;;;;;;;;7.16;53.21;102957.72;4997919;28;20383;-84
2022/02/12 08:33:40;;;;;;;;;;;;;;;6.62;54.34;102962.09;4997734;28;20008;-85
2022/02/12 08:36:05;;;;;;;;;;;;;;;7.33;53.19;102949.63;5014347;28;19917;-85
2022/02/12 08:38:30;;;;;;;;;;;;;;;7.15;53.47;102955.91;4996669;28;20379;-84
2022/02/12 08:40:58;;;;;;;;;;;;;;;7.03;53.91;102948.72;4996699;28;19929;-84
2022/02/12 08:43:23;;;;;;;;;;;;;;;7.23;53.53;102951.44;4996735;28;19941;-84
2022/02/12 08:45:48;;;;;;;;;;;;;;;6.73;54.36;102944.19;5014288;28;20380;-84
2022/02/12 08:48:13;;;;;;;;;;;;;;;7.32;53.59;102928.97;4996744;28;19964;-84
2022/02/12 08:50:39;;;;;;;;;;;;;;;7.27;53.77;102930.78;5014081;28;19918;-85
2022/02/12 08:53:05;;;;;;;;;;;;;;;7.67;53.20;102929.84;4996937;28;20072;-84
2022/02/12 08:55:31;;;;;;;;;;;;;;;7.18;53.62;102922.72;4997122;28;20012;-84
2022/02/12 08:57:56;;;;;;;;;;;;;;;7.75;52.31;102919.97;5014300;28;20359;-85
2022/02/12 09:00:21;;;;;;;;;;;;;;;7.81;52.36;102918.13;5014814;28;19944;-85
2022/02/12 09:02:46;;;;;;;;;;;;;;;7.99;51.59;102924.41;4995947;28;19933;-84
2022/02/12 09:05:11;;;;;;;;;;;;;;;7.71;52.04;102913.66;4996342;28;19918;-83
2022/02/12 09:07:37;;;;;;;;;;;;;;;8.58;50.70;102902.56;4995996;28;20368;-85
2022/02/12 09:10:02;;;;;;;;;;;;;;;8.14;51.07;102896.47;4996056;28;19918;-86
2022/02/12 09:12:28;;;;;;;;;;;;;;;8.73;50.24;102893.50;4995708;28;19941;-83
2022/02/12 09:14:53;;;;;;;;;;;;;;;8.94;49.25;102879.81;5013502;28;20015;-85
2022/02/12 09:17:18;;;;;;;;;;;;;;;8.39;50.00;102886.44;5013319;28;20324;-85
2022/02/12 09:19:43;;;;;;;;;;;;;;;8.34;50.59;102880.19;4995518;28;20466;-83
2022/02/12 09:22:09;;;;;;;;;;;;;;;8.16;50.24;102890.16;4995969;28;19917;-85
2022/02/12 09:24:34;;;;;;;;;;;;;;;8.69;49.18;102884.50;4995604;28;20133;-85
2022/02/12 09:26:59;;;;;;;;;;;;;;;9.11;48.36;102876.97;5013578;28;19921;-84
2022/02/12 09:29:25;;;;;;;;;;;;;;;8.87;48.98;102872.69;5013635;28;20256;-84
2022/02/12 09:31:50;;;;;;;;;;;;;;;9.28;48.25;102871.41;5012879;28;20379;-85
2022/02/12 09:34:15;;;;;;;;;;;;;;;9.90;45.84;102868.03;5013481;28;20265;-84
2022/02/12 09:36:40;;;;;;;;;;;;;;;9.04;48.07;102870.75;4995661;28;20016;-84
2022/02/12 09:39:06;;;;;;;;;;;;;;;9.29;47.14;102869.63;5013453;28;20000;-85
2022/02/12 09:41:32;;;;;;;;;;;;;;;9.42;46.71;102876.72;4995628;28;20379;-83
2022/02/12 09:43:57;;;;;;;;;;;;;;;9.60;46.80;102862.06;4998534;28;19972;-84
2022/02/12 09:46:22;;;;;;;;;;;;;;;9.11;47.27;102870.69;5000038;28;20007;-84
2022/02/12 09:48:48;;;;;;;;;;;;;;;9.85;46.16;102868.09;5000847;28;19917;-85
2022/02/12 09:51:13;;;;;;;;;;;;;;;9.32;46.79;102869.59;4999878;28;19924;-84
2022/02/12 09:53:39;;;;;;;;;;;;;;;9.80;46.10;102863.66;4999667;28;19924;-86
2022/02/12 09:56:04;;;;;;;;;;;;;;;9.19;47.09;102858.91;4999653;28;19921;-84
2022/02/12 09:58:29;;;;;;;;;;;;;;;9.18;46.66;102859.81;4999402;28;19925;-84
2022/02/12 10:00:55;;;;;;;;;;;;;;;9.11;46.98;102857.19;5017012;28;20386;-82
2022/02/12 10:03:20;;;;;;;;;;;;;;;10.21;45.79;102849.63;5000066;28;19937;-83
2022/02/12 10:05:53;;;;;;;;;;;;;;;9.77;45.91;102840.28;5004085;28;20290;-83
2022/02/12 10:08:19;;;;;;;;;;;;;;;9.60;46.22;102831.47;5019087;28;19930;-81
2022/02/12 10:10:45;;;;;;;;;;;;;;;10.17;45.53;102822.63;5021394;28;19923;-83
2022/02/12 10:13:15;;;;;;;;;;;;;;;9.62;46.18;102827.84;4999504;28;19924;-80
2022/02/12 10:15:42;;;;;;;;;;;;;;;9.37;46.09;102819.09;4998542;28;20286;-82
2022/02/12 10:18:10;;;;;;;;;;;;;;;10.59;44.82;102810.28;5016579;28;19922;-83
2022/02/12 10:20:37;;;;;;;;;;;;;;;10.41;44.26;102816.88;4998575;28;19921;-82
2022/02/12 10:23:04;;;;;;;;;;;;;;;9.75;45.09;102818.69;4992826;28;20029;-86
2022/02/12 10:25:30;;;;;;;;;;;;;;;10.31;44.75;102809.81;4998766;28;19918;-84
2022/02/12 10:27:55;;;;;;;;;;;;;;;10.24;43.92;102805.41;5014575;28;20364;-84
2022/02/12 10:30:24;;;;;;;;;;;;;;;10.55;43.30;102814.00;5013776;28;19921;-86
2022/02/12 10:32:51;;;;;;;;;;;;;;;11.06;42.61;102814.94;4994068;28;19941;-84
2022/02/12 10:35:17;;;;;;;;;;;;;;;10.83;43.51;102818.94;4997658;28;20383;-82
2022/02/12 10:37:43;;;;;;;;;;;;;;;11.26;42.17;102817.25;4998119;28;19921;-84
2022/02/12 10:40:09;;;;;;;;;;;;;;;10.30;43.10;102824.25;4997964;28;19918;-85
2022/02/12 10:42:43;;;;;;;;;;;;;;;10.39;43.08;102828.66;4997516;28;19922;-87
2022/02/12 10:45:16;;;;;;;;;;;;;;;10.80;42.38;102824.41;5016802;28;20015;-87
2022/02/12 10:47:42;;;;;;;;;;;;;;;10.78;41.94;102828.97;4998946;28;20295;-85
2022/02/12 10:50:08;;;;;;;;;;;;;;;11.34;41.12;102837.00;4997274;28;19917;-87
2022/02/12 10:52:39;;;;;;;;;;;;;;;11.63;40.95;102839.13;4998948;28;19921;-85
2022/02/12 10:55:05;;;;;;;;;;;;;;;11.72;40.35;102816.38;4996990;28;19921;-84
2022/02/12 10:57:36;;;;;;;;;;;;;;;12.48;39.46;102812.00;4998831;28;19945;-83
2022/02/12 11:00:02;;;;;;;;;;;;;;;12.31;40.09;102801.53;4998838;28;19921;-85
2022/02/12 11:02:28;;;;;;;;;;;;;;;12.44;38.93;102807.56;4998094;28;19937;-83
2022/02/12 11:04:57;;;;;;;;;;;;;;;11.76;40.35;102814.47;4997981;28;19921;-85
2022/02/12 11:07:22;;;;;;;;;;;;;;;11.26;41.10;102790.16;4997451;28;19964;-84
2022/02/12 11:09:48;;;;;;;;;;;;;;;11.50;40.88;102788.78;4998104;28;20031;-84
2022/02/12 11:12:14;;;;;;;;;;;;;;;11.49;40.63;102790.63;5015017;28;19918;-81
2022/02/12 11:14:43;;;;;;;;;;;;;;;11.32;40.73;102790.03;5015713;28;20036;-81
2022/02/12 11:17:10;;;;;;;;;;;;;;;11.68;41.09;102776.66;5000932;28;19940;-83
2022/02/12 11:19:36;;;;;;;;;;;;;;;11.28;41.08;102769.38;5021511;28;19921;-80
2022/02/12 11:22:02;;;;;;;;;;;;;;;11.49;40.85;102765.34;5005574;28;19924;-84
2022/02/12 11:24:38;;;;;;;;;;;;;;;11.74;40.45;102754.84;5006425;28;20406;-85
2022/02/12 11:27:16;;;;;;;;;;;;;;;12.72;39.14;102746.19;4989587;28;19957;-83
2022/02/12 11:29:44;;;;;;;;;;;;;;;13.41;37.90;102746.16;5006570;28;19920;-84
2022/02/12 11:32:10;;;;;;;;;;;;;;;12.49;38.27;102735.94;4997391;28;19961;-85
2022/02/12 11:34:36;;;;;;;;;;;;;;;12.58;38.63;102732.09;4997295;28;19925;-84
2022/02/12 11:37:11;;;;;;;;;;;;;;;12.55;38.64;102716.78;4997397;28;20441;-85
2022/02/12 11:39:37;;;;;;;;;;;;;;;12.32;39.10;102706.53;4996786;28;19924;-85
2022/02/12 11:42:04;;;;;;;;;;;;;;;12.29;39.38;102701.16;5015328;28;19917;-83
2022/02/12 11:44:44;;;;;;;;;;;;;;;12.61;39.09;102696.72;4997626;28;20387;-86
2022/02/12 11:47:10;;;;;;;;;;;;;;;12.20;38.48;102704.13;4997857;28;19917;-86
2022/02/12 11:49:42;;;;;;;;;;;;;;;11.68;39.71;102704.38;4997359;28;19928;-84
2022/02/12 11:52:31;;;;;;;;;;;;;;;12.02;38.94;102695.47;4997408;28;19939;-84
2022/02/12 11:54:57;;;;;;;;;;;;;;;12.36;38.19;102683.78;4996685;28;20008;-84
2022/02/12 11:57:25;;;;;;;;;;;;;;;12.47;38.02;102679.91;4997385;28;19921;-83
2022/02/12 11:59:51;;;;;;;;;;;;;;;12.21;38.00;102670.59;4997832;28;20328;-82
2022/02/12 12:02:35;;;;;;;;;;;;;;;11.98;37.75;102680.19;4998085;28;19968;-83
2022/02/12 12:05:15;;;;;;;;;;;;;;;11.93;38.18;102667.69;4999377;28;19925;-84
2022/02/12 12:08:20;;;;;;;;;;;;;;;12.31;37.82;102664.00;4997316;28;20324;-85
2022/02/12 12:10:48;;;;;;;;;;;;;;;12.21;38.10;102654.31;5014400;28;20004;-85
2022/02/12 12:13:14;;;;;;;;;;;;;;;12.54;37.52;102655.25;4997472;28;20518;-84
2022/02/12 12:15:48;;;;;;;;;;;;;;;12.89;36.90;102655.22;4997139;28;20033;-84
2022/02/12 12:18:13;;;;;;;;;;;;;;;12.88;36.46;102656.19;4997199;28;19918;-84
2022/02/12 12:20:42;;;;;;;;;;;;;;;13.07;36.03;102638.41;4997226;28;19941;-82
2022/02/12 12:23:09;;;;;;;;;;;;;;;11.52;38.45;102651.44;4996616;28;20386;-82
2022/02/12 12:26:08;;;;;;;;;;;;;;;12.17;38.54;102628.22;4996751;28;19918;-84
2022/02/12 12:30:43;;;;;;;;;;;;;;;11.93;38.82;102618.88;4966832;28;19980;-88
2022/02/12 12:31:30;;;;;;;;;;;;;;;12.19;38.56;102620.91;5014440;28;19922;-84
2022/02/12 12:34:05;;;;;;;;;;;;;;;12.14;38.43;102614.69;4997028;28;19931;-84
2022/02/12 12:36:36;;;;;;;;;;;;;;;11.77;38.62;102612.91;4996567;28;19940;-88
2022/02/12 12:39:08;;;;;;;;;;;;;;;11.12;39.50;102606.25;4996616;28;20075;-84
2022/02/12 12:41:34;;;;;;;;;;;;;;;11.54;38.59;102589.94;4996445;28;20410;-83
2022/02/12 12:44:13;;;;;;;;;;;;;;;11.52;38.35;102586.38;4996671;28;19953;-86
2022/02/12 12:46:39;;;;;;;;;;;;;;;12.27;37.21;102580.91;4996759;28;19921;-89
2022/02/12 12:49:05;;;;;;;;;;;;;;;11.60;38.37;102578.06;4997931;28;19918;-86
2022/02/12 12:51:30;;;;;;;;;;;;;;;11.67;38.67;102580.59;4997368;28;19980;-86